Time;durP1;ratioP1;P1;durP2;ratioP2;P2;SDS_P1;SDS_P2;PMS_P1;PMS_P2;Temp;Humidity;BMP_temperature;BMP_pressure;BME280_temperature;BME280_humidity;BME280_pressure;Samples;Min_cycle;Max_cycle;Signal;HPM_P1;HPM_P2
2022/04/21 00:00:08;;;;;;;;;10.33;10.33;;;;;13.54;47.05;100391.56;5011935;28;45575;-82
2022/04/21 00:02:34;;;;;;;;;13.25;11.25;;;;;13.54;47.26;100386.28;5028766;28;45865;-84
2022/04/21 00:04:59;;;;;;;;;17.25;13.50;;;;;13.89;47.95;100452.88;5028059;28;47114;-82
2022/04/21 00:07:25;;;;;;;;;13.50;13.25;;;;;13.51;47.23;100387.13;5029909;28;45574;-82
2022/04/21 00:09:50;;;;;;;;;12.25;12.00;;;;;13.62;47.13;100413.72;5036491;28;45744;-82
2022/04/21 00:12:16;;;;;;;;;12.00;11.75;;;;;13.58;47.55;100401.31;5031145;28;45627;-83
2022/04/21 00:14:41;;;;;;;;;13.00;12.50;;;;;13.66;47.58;100407.63;5049876;28;45644;-82
2022/04/21 00:17:09;;;;;;;;;13.25;13.25;;;;;13.59;47.71;100408.38;5049468;28;45785;-82
2022/04/21 00:19:36;;;;;;;;;14.50;14.25;;;;;13.73;47.73;100435.91;5049952;28;45672;-83
2022/04/21 00:24:45;;;;;;;;;13.75;12.25;;;;;13.48;47.85;100394.09;5049401;28;45889;-83
2022/04/21 00:27:11;;;;;;;;;13.00;12.75;;;;;13.73;48.52;100449.09;5030958;28;49423;-83
2022/04/21 00:29:37;;;;;;;;;13.00;12.00;;;;;13.41;48.46;100394.00;5050135;28;45542;-82
2022/04/21 00:32:02;;;;;;;;;10.75;10.75;;;;;13.28;48.33;100376.16;5048874;28;45909;-83
2022/04/21 00:34:28;;;;;;;;;14.00;13.25;;;;;13.57;48.86;100445.31;5049408;28;46584;-83
2022/04/21 00:36:53;;;;;;;;;12.50;11.50;;;;;13.41;49.16;100409.84;5049316;28;45502;-83
2022/04/21 00:39:18;;;;;;;;;11.00;11.00;;;;;13.26;49.19;100395.50;5049256;28;45502;-82
2022/04/21 00:41:44;;;;;;;;;13.25;12.75;;;;;13.27;48.87;100394.63;5049507;28;45930;-83
2022/04/21 00:44:09;;;;;;;;;11.75;11.75;;;;;13.34;49.48;100409.69;5051300;28;45451;-81
2022/04/21 00:46:38;;;;;;;;;12.50;11.75;;;;;13.44;49.47;100432.75;5047089;28;45726;-83
2022/04/21 00:49:04;;;;;;;;;10.50;10.00;;;;;13.08;49.25;100380.16;5049138;28;45789;-81
2022/04/21 00:51:31;;;;;;;;;12.00;12.00;;;;;13.20;49.24;100397.97;5049189;28;45711;-82
2022/04/21 00:53:57;;;;;;;;;12.50;11.50;;;;;12.86;49.38;100350.75;5048750;28;46645;-83
2022/04/21 00:56:23;;;;;;;;;10.00;10.00;;;;;13.31;48.82;100426.38;5049018;28;45467;-82
2022/04/21 00:58:48;;;;;;;;;12.25;12.00;;;;;13.01;49.10;100371.25;5049168;28;45361;-82
2022/04/21 01:03:58;;;;;;;;;12.75;11.75;;;;;12.99;48.83;100374.72;5048975;28;45662;-82
2022/04/21 01:06:23;;;;;;;;;7.00;6.50;;;;;13.11;48.72;100393.44;5048864;28;45861;-82
2022/04/21 01:08:49;;;;;;;;;9.50;9.50;;;;;13.07;48.75;100389.81;5047167;28;46231;-83
2022/04/21 01:11:18;;;;;;;;;9.50;8.25;;;;;12.95;48.80;100364.97;5030497;28;45579;-83
2022/04/21 01:13:44;;;;;;;;;11.50;11.00;;;;;12.86;48.37;100350.75;5031004;28;46167;-81
2022/04/21 01:16:10;;;;;;;;;10.00;10.00;;;;;13.04;48.22;100389.75;5048703;28;45978;-82
2022/04/21 01:18:35;;;;;;;;;11.25;11.00;;;;;12.80;48.48;100347.09;5049539;28;45709;-82
2022/04/21 01:21:00;;;;;;;;;10.00;10.00;;;;;12.72;48.22;100339.06;5030417;28;45811;-83
2022/04/21 01:23:26;;;;;;;;;10.00;10.00;;;;;12.84;48.20;100359.47;5049103;28;46549;-82
2022/04/21 01:25:52;;;;;;;;;10.50;10.00;;;;;12.84;48.36;100370.03;5048688;28;46403;-83
2022/04/21 01:28:18;;;;;;;;;9.25;9.00;;;;;12.72;48.50;100346.97;5051689;28;45458;-82
2022/04/21 01:30:44;;;;;;;;;10.75;10.50;;;;;12.72;48.41;100357.50;5052489;28;45517;-81
2022/04/21 01:33:09;;;;;;;;;8.00;8.00;;;;;12.84;48.83;100376.19;5052566;28;46264;-83
2022/04/21 01:35:36;;;;;;;;;9.75;9.00;;;;;12.74;48.58;100368.97;5052168;28;45851;-84
2022/04/21 01:43:29;;;;;;;;;10.00;9.50;;;;;12.51;48.79;100335.97;5052552;28;45394;-82
2022/04/21 01:45:54;;;;;;;;;10.50;9.50;;;;;12.69;49.11;100367.97;5051501;28;45672;-82
2022/04/21 01:48:20;;;;;;;;;14.00;11.25;;;;;12.48;49.33;100335.94;5052178;28;45412;-83
2022/04/21 01:50:45;;;;;;;;;9.50;8.50;;;;;12.79;49.16;100384.88;5052230;28;45454;-82
2022/04/21 01:53:11;;;;;;;;;9.50;9.50;;;;;12.39;49.65;100319.06;5051807;28;45657;-82
2022/04/21 01:55:37;;;;;;;;;10.25;9.00;;;;;12.50;49.73;100353.53;5051941;28;45544;-82
2022/04/21 01:58:02;;;;;;;;;11.00;10.75;;;;;12.68;50.22;100378.50;5051632;28;45414;-81
2022/04/21 02:00:28;;;;;;;;;11.25;10.50;;;;;12.68;50.22;100382.03;5051614;28;45582;-83
2022/04/21 02:02:53;;;;;;;;;10.25;10.25;;;;;12.37;50.26;100326.06;5051979;28;45792;-82
2022/04/21 02:05:19;;;;;;;;;11.25;10.00;;;;;12.19;50.22;100301.97;5033132;28;45662;-83
2022/04/21 02:07:45;;;;;;;;;10.25;9.00;;;;;12.47;50.76;100353.50;5052247;28;45690;-83
2022/04/21 02:10:16;;;;;;;;;9.00;8.00;;;;;12.48;50.23;100352.63;5060710;28;45597;-82
2022/04/21 02:12:41;;;;;;;;;10.00;10.00;;;;;12.43;50.60;100349.00;5072162;28;46197;-83
2022/04/21 02:15:08;;;;;;;;;11.50;10.75;;;;;12.40;50.65;100341.91;5071280;28;45746;-82
2022/04/21 02:17:33;;;;;;;;;8.75;8.00;;;;;12.36;50.81;100334.84;5072623;28;45469;-81
2022/04/21 02:20:00;;;;;;;;;8.25;8.00;;;;;12.20;48.61;100318.66;5053003;28;45862;-83
2022/04/21 02:22:26;;;;;;;;;11.25;10.25;;;;;12.46;48.65;100346.41;5053962;28;46370;-83
2022/04/21 02:24:52;;;;;;;;;9.00;9.00;;;;;12.58;49.63;100365.13;5038681;28;45667;-83
2022/04/21 02:27:17;;;;;;;;;10.00;9.75;;;;;12.41;49.53;100321.72;5051297;28;45714;-83
2022/04/21 02:29:43;;;;;;;;;9.00;8.00;;;;;12.42;49.21;100325.28;5033285;28;45637;-83
2022/04/21 02:32:08;;;;;;;;;9.00;9.00;;;;;12.50;49.00;100344.75;5033074;28;48135;-83
2022/04/21 02:34:34;;;;;;;;;10.00;9.75;;;;;12.33;48.44;100329.47;5050857;28;45548;-81
2022/04/21 02:36:59;;;;;;;;;9.00;8.25;;;;;12.19;48.91;100294.06;5051572;28;45430;-82
2022/04/21 02:39:25;;;;;;;;;10.50;10.00;;;;;12.54;48.94;100350.09;5051473;28;45599;-82
2022/04/21 02:41:51;;;;;;;;;9.50;9.50;;;;;12.26;49.38;100302.97;5050702;28;46276;-82
2022/04/21 02:44:16;;;;;;;;;12.75;12.50;;;;;12.35;49.09;100311.06;5051434;28;45471;-82
2022/04/21 02:46:42;;;;;;;;;11.00;10.00;;;;;12.30;48.94;100299.53;5051333;28;45532;-82
2022/04/21 02:49:08;;;;;;;;;11.50;11.25;;;;;12.26;49.38;100295.94;5060717;28;45369;-82
2022/04/21 02:51:34;;;;;;;;;13.50;11.00;;;;;12.21;48.91;100288.81;5071594;28;46374;-83
2022/04/21 02:59:29;;;;;;;;;9.00;9.00;;;;;12.22;49.36;100302.03;5054314;28;45627;-82
2022/04/21 03:01:54;;;;;;;;;10.50;9.50;;;;;12.26;49.67;100311.75;5032286;28;48163;-83
2022/04/21 03:04:20;;;;;;;;;11.25;10.75;;;;;12.18;50.01;100302.81;5051091;28;45749;-83
2022/04/21 03:06:46;;;;;;;;;10.50;10.50;;;;;12.05;50.21;100280.59;5051180;28;45590;-82
2022/04/21 03:09:11;;;;;;;;;11.75;9.25;;;;;11.99;50.02;100277.84;5050204;28;45581;-80
2022/04/21 03:11:37;;;;;;;;;8.00;8.00;;;;;12.15;50.33;100310.66;5032515;28;48135;-83
2022/04/21 03:14:02;;;;;;;;;12.75;11.75;;;;;11.92;50.56;100269.75;5050838;28;45409;-82
2022/04/21 03:16:28;;;;;;;;;9.25;8.75;;;;;12.04;50.34;100288.47;5050981;28;45467;-83
2022/04/21 03:18:53;;;;;;;;;12.75;8.00;;;;;11.83;49.97;100258.19;5050818;28;45782;-82
2022/04/21 03:24:20;;;;;;;;;12.00;11.75;;;;;12.09;49.62;100300.88;5050213;28;45821;-82
2022/04/21 03:26:51;;;;;;;;;10.25;9.00;;;;;12.19;49.51;100312.50;5032059;28;45680;-82
2022/04/21 03:29:16;;;;;;;;;10.00;9.75;;;;;11.78;49.38;100244.00;5050653;28;45529;-83
2022/04/21 03:31:43;;;;;;;;;13.50;12.00;;;;;11.76;49.77;100235.16;5031742;28;47548;-82
2022/04/21 03:34:16;;;;;;;;;9.25;9.25;;;;;12.21;50.14;100315.16;5031766;28;45916;-81
2022/04/21 03:39:11;;;;;;;;;13.00;12.00;;;;;12.19;49.65;100327.41;5049864;28;45705;-82
2022/04/21 03:41:37;;;;;;;;;10.33;10.33;;;;;11.81;49.96;100261.59;5050010;28;46677;-82
2022/04/21 03:44:03;;;;;;;;;12.50;11.50;;;;;12.06;49.79;100297.28;5050315;28;45856;-81
2022/04/21 03:46:29;;;;;;;;;13.50;13.25;;;;;11.96;49.21;100300.56;5050020;28;45375;-82
2022/04/21 03:48:54;;;;;;;;;13.00;11.00;;;;;11.52;49.09;100229.38;5049346;28;45932;-82
2022/04/21 03:51:20;;;;;;;;;14.50;14.25;;;;;11.58;49.75;100240.06;5049538;28;45488;-82
2022/04/21 03:53:46;;;;;;;;;10.00;9.75;;;;;11.67;48.86;100247.25;5031961;28;45843;-83
2022/04/21 03:56:11;;;;;;;;;13.75;13.50;;;;;11.81;48.50;100282.66;5049603;28;45444;-83
2022/04/21 03:58:36;;;;;;;;;13.75;12.75;;;;;11.99;48.32;100305.91;5032628;28;45523;-82
2022/04/21 04:01:02;;;;;;;;;11.00;11.00;;;;;11.72;47.57;100261.38;5031046;28;47214;-83
2022/04/21 04:03:27;;;;;;;;;11.75;11.75;;;;;12.09;47.73;100331.59;5050116;28;45549;-82
2022/04/21 04:05:53;;;;;;;;;14.25;13.00;;;;;11.63;47.48;100256.84;5032055;28;45428;-83
2022/04/21 04:11:02;;;;;;;;;8.50;8.50;;;;;11.59;47.67;100234.81;5066200;28;45366;-82
2022/04/21 04:13:27;;;;;;;;;9.50;9.00;;;;;11.86;47.10;100289.84;5070451;28;45586;-82
2022/04/21 04:15:54;;;;;;;;;10.00;9.75;;;;;11.97;47.67;100319.06;5051306;28;45447;-82
2022/04/21 04:18:20;;;;;;;;;10.50;10.25;;;;;11.93;47.64;100309.31;5069979;28;45648;-82
2022/04/21 04:20:46;;;;;;;;;10.50;10.50;;;;;12.03;47.76;100324.47;5051768;28;48091;-83
2022/04/21 04:23:17;;;;;;;;;7.75;6.75;;;;;11.83;47.47;100292.41;5069422;28;45423;-83
2022/04/21 04:25:42;;;;;;;;;9.00;9.00;;;;;12.00;47.90;100316.47;5069824;28;45763;-82
2022/04/21 04:28:08;;;;;;;;;9.75;9.75;;;;;11.45;47.98;100230.97;5051390;28;45505;-82
2022/04/21 04:30:33;;;;;;;;;11.67;11.67;;;;;11.67;47.41;100282.34;5069342;27;46049;-82
2022/04/21 04:32:59;;;;;;;;;12.75;10.00;;;;;11.64;47.69;100279.66;5055263;28;45433;-82
2022/04/21 04:35:25;;;;;;;;;12.25;11.50;;;;;11.63;47.40;100283.16;5070060;28;45935;-82
2022/04/21 04:37:52;;;;;;;;;11.75;11.25;;;;;11.56;46.94;100271.56;5069957;28;45524;-83
2022/04/21 04:40:20;;;;;;;;;11.50;10.50;;;;;11.65;46.88;100283.19;5069139;27;46339;-82
2022/04/21 04:42:46;;;;;;;;;12.25;11.75;;;;;11.88;45.62;100327.63;5066855;27;45809;-83
2022/04/21 04:47:55;;;;;;;;;12.00;12.00;;;;;11.72;44.87;100280.69;5060794;28;45719;-83
2022/04/21 04:50:21;;;;;;;;;12.00;11.25;;;;;11.77;44.83;100275.53;5068918;28;45458;-82
2022/04/21 04:52:49;;;;;;;;;11.75;11.75;;;;;11.90;45.41;100303.06;5069656;28;45537;-82
2022/04/21 04:55:15;;;;;;;;;12.25;10.00;;;;;11.98;46.36;100323.47;5059424;28;46000;-82
2022/04/21 04:57:40;;;;;;;;;11.00;11.00;;;;;11.95;45.63;100323.38;5051553;28;45487;-83
2022/04/21 05:00:08;;;;;;;;;12.75;10.25;;;;;11.91;44.73;100313.63;5054151;28;46353;-83
2022/04/21 05:02:34;;;;;;;;;12.00;12.00;;;;;11.71;45.03;100273.66;5044465;28;45913;-82
2022/04/21 05:04:59;;;;;;;;;12.25;11.50;;;;;11.62;45.92;100253.31;5066488;28;45407;-82
2022/04/21 05:07:26;;;;;;;;;13.75;13.00;;;;;12.10;45.17;100333.38;5059035;28;45522;-81
2022/04/21 05:09:57;;;;;;;;;12.75;11.75;;;;;11.90;44.44;100295.19;5056798;27;46039;-82
2022/04/21 05:12:23;;;;;;;;;11.50;10.25;;;;;11.79;44.30;100287.91;5060115;27;45887;-82
2022/04/21 05:14:52;;;;;;;;;12.33;12.00;;;;;11.91;44.39;100297.84;5053961;28;45776;-83
2022/04/21 05:17:18;;;;;;;;;14.00;12.50;;;;;12.16;44.50;100340.50;5064406;28;45588;-82
2022/04/21 05:19:43;;;;;;;;;12.00;12.00;;;;;11.94;43.86;100308.44;5059262;28;46041;-82
2022/04/21 05:22:11;;;;;;;;;11.75;11.00;;;;;12.21;44.36;100347.66;5044337;28;45788;-82
2022/04/21 05:24:38;;;;;;;;;14.25;12.75;;;;;12.23;43.76;100340.69;5045422;28;45496;-81
2022/04/21 05:27:04;;;;;;;;;14.25;12.50;;;;;11.82;43.88;100274.84;5058889;28;45648;-83
2022/04/21 05:32:19;;;;;;;;;14.25;14.00;;;;;12.29;43.43;100339.94;5052180;28;46160;-83
2022/04/21 05:34:45;;;;;;;;;12.25;12.25;;;;;12.10;43.76;100307.03;5050831;28;45713;-82
2022/04/21 05:37:14;;;;;;;;;11.25;10.50;;;;;12.12;43.42;100310.59;5059579;28;45386;-84
2022/04/21 05:39:40;;;;;;;;;4.50;4.50;;;;;11.65;43.52;100218.25;5068223;28;45742;-82
2022/04/21 05:42:06;;;;;;;;;14.25;12.00;;;;;12.22;42.78;100307.31;5069238;28;45337;-81
2022/04/21 05:44:31;;;;;;;;;11.75;11.75;;;;;11.53;42.92;100197.84;5055205;28;45572;-82
2022/04/21 05:46:57;;;;;;;;;13.50;12.75;;;;;12.06;42.93;100281.47;5051420;28;45310;-83
2022/04/21 05:49:24;;;;;;;;;14.00;13.00;;;;;12.12;43.36;100294.78;5044468;28;47453;-81
2022/04/21 05:51:51;;;;;;;;;12.50;12.50;;;;;12.43;43.31;100337.59;5063101;27;45719;-83
2022/04/21 05:54:17;;;;;;;;;14.25;13.50;;;;;12.25;43.17;100295.91;5050746;28;45784;-83
2022/04/21 05:56:42;;;;;;;;;13.00;13.00;;;;;12.11;43.55;100279.81;5069891;28;45560;-81
2022/04/21 05:59:08;;;;;;;;;13.75;12.75;;;;;12.22;42.99;100302.03;5071835;28;46545;-83
2022/04/21 06:01:33;;;;;;;;;16.50;14.75;;;;;12.19;43.48;100278.25;5070667;28;45979;-84
2022/04/21 06:03:58;;;;;;;;;14.25;13.00;;;;;12.23;43.63;100277.47;5069829;28;45387;-83
2022/04/21 06:06:24;;;;;;;;;15.00;13.00;;;;;12.47;43.39;100315.72;5070311;28;45426;-83
2022/04/21 06:08:49;;;;;;;;;11.00;9.50;;;;;12.24;43.11;100275.72;5069426;28;45450;-83
2022/04/21 06:11:16;;;;;;;;;16.50;15.00;;;;;12.37;43.63;100290.91;5070584;28;45506;-82
2022/04/21 06:13:42;;;;;;;;;10.75;9.00;;;;;12.37;43.31;100289.16;5071360;28;45508;-83
2022/04/21 06:16:08;;;;;;;;;12.50;12.00;;;;;12.53;43.20;100310.56;5052064;28;45733;-82
2022/04/21 06:18:36;;;;;;;;;21.00;19.00;;;;;12.63;43.26;100320.41;5072014;28;45493;-83
2022/04/21 06:21:01;;;;;;;;;13.75;13.75;;;;;12.56;43.31;100310.59;5071253;28;45834;-82
2022/04/21 06:23:27;;;;;;;;;14.00;14.00;;;;;12.67;43.57;100327.53;5071741;28;45657;-83
2022/04/21 06:25:58;;;;;;;;;17.50;16.00;;;;;12.30;43.25;100247.72;5069947;28;45730;-82
2022/04/21 06:28:25;;;;;;;;;16.50;15.25;;;;;12.46;42.93;100274.38;5053254;28;46313;-82
2022/04/21 06:30:50;;;;;;;;;14.50;13.50;;;;;12.51;43.06;100284.16;5070650;28;45881;-83
2022/04/21 06:33:16;;;;;;;;;16.00;14.75;;;;;12.50;43.13;100276.22;5053330;28;45344;-82
2022/04/21 06:35:41;;;;;;;;;15.75;15.75;;;;;12.64;42.66;100304.63;5069378;28;45457;-83
2022/04/21 06:38:07;;;;;;;;;15.25;14.00;;;;;12.52;43.07;100271.88;5070348;28;46541;-82
2022/04/21 06:40:33;;;;;;;;;15.00;15.00;;;;;12.66;43.26;100288.84;5053327;28;45600;-83
2022/04/21 06:43:02;;;;;;;;;14.25;13.25;;;;;12.46;43.31;100250.66;5071380;28;45447;-83
2022/04/21 06:48:13;;;;;;;;;14.00;13.75;;;;;12.57;43.04;100251.75;5068805;28;45876;-83
2022/04/21 06:50:40;;;;;;;;;16.25;16.25;;;;;12.67;42.58;100261.63;5046053;28;45478;-83
2022/04/21 06:53:07;;;;;;;;;17.50;15.00;;;;;12.81;42.90;100280.31;5045601;28;45446;-82
2022/04/21 06:55:34;;;;;;;;;13.50;13.00;;;;;12.77;43.22;100265.31;5030846;28;45484;-83
2022/04/21 06:58:02;;;;;;;;;16.00;15.00;;;;;12.54;42.75;100214.78;5030490;28;47104;-83
2022/04/21 07:00:28;;;;;;;;;12.00;12.00;;;;;13.15;42.66;100302.88;5029937;28;45512;-83
2022/04/21 07:02:56;;;;;;;;;14.50;14.00;;;;;12.73;42.46;100237.97;5030783;28;45567;-82
2022/04/21 07:05:22;;;;;;;;;14.25;13.75;;;;;12.96;42.53;100262.13;5030220;28;45654;-82
2022/04/21 07:07:49;;;;;;;;;12.50;12.50;;;;;13.23;42.30;100309.22;5011746;28;48224;-82
2022/04/21 07:10:15;;;;;;;;;15.50;14.25;;;;;12.91;42.97;100246.22;5018601;28;45835;-82
2022/04/21 07:12:40;;;;;;;;;17.00;14.00;;;;;12.80;42.99;100217.88;5029355;28;45509;-83
2022/04/21 07:15:08;;;;;;;;;12.00;11.50;;;;;13.37;42.34;100312.97;5027885;28;45409;-82
2022/04/21 07:17:34;;;;;;;;;14.25;13.50;;;;;13.40;42.42;100313.03;5031082;28;45332;-83
2022/04/21 07:20:02;;;;;;;;;16.75;15.50;;;;;13.42;42.19;100308.66;5030043;28;45614;-82
2022/04/21 07:22:28;;;;;;;;;16.50;15.50;;;;;13.41;42.19;100320.09;5030348;28;45465;-83
2022/04/21 07:24:55;;;;;;;;;16.25;16.25;;;;;12.90;42.49;100210.13;5027179;28;45632;-83
2022/04/21 07:27:22;;;;;;;;;15.00;13.25;;;;;12.94;42.71;100215.47;5029051;28;48298;-82
2022/04/21 07:29:47;;;;;;;;;16.25;14.75;;;;;13.41;42.36;100288.41;5028327;28;46081;-83
2022/04/21 07:32:13;;;;;;;;;17.00;17.00;;;;;13.09;42.49;100239.47;5012352;28;45708;-83
2022/04/21 07:34:38;;;;;;;;;18.25;17.75;;;;;13.55;42.54;100301.84;5030462;28;45476;-83
2022/04/21 07:37:05;;;;;;;;;16.75;16.00;;;;;13.17;42.80;100232.56;5030939;28;45513;-83
2022/04/21 07:39:31;;;;;;;;;16.75;16.00;;;;;13.44;42.03;100274.34;5032123;28;45792;-82
2022/04/21 07:41:58;;;;;;;;;15.50;14.50;;;;;13.29;42.36;100245.09;5050308;28;45348;-83
2022/04/21 07:44:25;;;;;;;;;17.00;15.75;;;;;13.57;42.85;100292.16;5032238;28;45598;-83
2022/04/21 07:46:50;;;;;;;;;18.75;17.50;;;;;13.60;43.07;100283.41;5049439;28;45636;-83
2022/04/21 07:54:46;;;;;;;;;16.00;16.00;;;;;13.75;43.76;100277.47;5049749;28;45406;-82
2022/04/21 07:57:12;;;;;;;;;18.75;18.00;;;;;13.35;42.92;100195.94;5031663;28;47271;-83
2022/04/21 07:59:37;;;;;;;;;16.33;16.33;;;;;13.77;43.12;100262.53;5050069;28;45491;-83
2022/04/21 08:02:04;;;;;;;;;15.00;15.00;;;;;13.73;42.77;100236.94;5031354;28;45359;-83
2022/04/21 08:04:32;;;;;;;;;19.75;17.75;;;;;13.85;43.35;100253.84;5050209;28;45652;-83
2022/04/21 08:06:58;;;;;;;;;17.00;16.00;;;;;14.01;42.50;100285.75;5048687;28;46734;-83
2022/04/21 08:09:23;;;;;;;;;16.00;16.00;;;;;13.82;42.91;100252.91;5052165;28;45497;-82
2022/04/21 08:11:49;;;;;;;;;18.50;16.50;;;;;13.91;43.02;100256.56;5068869;28;45658;-83
2022/04/21 08:14:16;;;;;;;;;16.75;16.00;;;;;14.01;42.87;100257.56;5059375;28;45526;-82
2022/04/21 08:16:44;;;;;;;;;17.00;16.00;;;;;14.06;43.26;100253.22;5047594;28;45497;-83
2022/04/21 08:19:10;;;;;;;;;16.50;16.00;;;;;14.38;42.92;100301.22;5048052;28;45299;-83
2022/04/21 08:21:37;;;;;;;;;17.50;16.25;;;;;14.07;42.37;100233.84;5047847;28;45450;-83
2022/04/21 08:32:33;;;;;;;;;18.50;17.75;;;;;14.48;42.98;100296.03;5029166;28;45538;-83
2022/04/21 08:32:33;;;;;;;;;17.75;16.50;;;;;14.16;42.33;100238.38;5047696;28;45576;-83
2022/04/21 08:35:00;;;;;;;;;16.25;14.25;;;;;14.28;42.42;100254.34;5047391;28;45557;-82
2022/04/21 08:37:25;;;;;;;;;15.50;15.25;;;;;14.35;42.41;100268.56;5046934;28;46281;-83
2022/04/21 08:39:50;;;;;;;;;19.25;17.00;;;;;14.57;42.43;100294.38;5047684;28;45567;-83
2022/04/21 08:42:16;;;;;;;;;15.25;14.75;;;;;14.40;42.26;100248.34;5029480;28;45348;-83
2022/04/21 08:44:44;;;;;;;;;19.50;18.25;;;;;14.53;42.36;100260.88;5047461;28;45491;-83
2022/04/21 08:47:12;;;;;;;;;19.50;17.75;;;;;14.78;41.69;100299.03;5047133;28;45817;-83
2022/04/21 08:49:39;;;;;;;;;18.50;16.00;;;;;14.72;41.75;100283.06;5061271;28;45979;-83
2022/04/21 08:52:06;;;;;;;;;20.00;18.50;;;;;14.79;41.15;100284.94;5067550;28;45410;-83
2022/04/21 08:54:32;;;;;;;;;18.25;15.75;;;;;14.88;41.75;100292.09;5067845;28;45517;-83
2022/04/21 08:56:59;;;;;;;;;17.00;15.50;;;;;14.87;41.46;100283.22;5048997;28;48449;-83
2022/04/21 08:59:25;;;;;;;;;16.25;16.25;;;;;14.78;41.30;100266.38;5049585;28;45880;-83
2022/04/21 09:01:50;;;;;;;;;16.25;16.25;;;;;14.84;41.63;100267.34;5067477;28;45744;-83
2022/04/21 09:04:16;;;;;;;;;14.50;14.25;;;;;14.82;41.65;100247.91;5056788;28;47296;-83
2022/04/21 09:06:41;;;;;;;;;18.00;15.25;;;;;14.77;41.34;100233.75;5046765;28;46457;-83
2022/04/21 09:09:21;;;;;;;;;16.25;15.75;;;;;15.23;41.49;100293.28;5042313;28;137119;-83
2022/04/21 09:11:53;;;;;;;;;18.25;18.00;;;;;15.07;41.53;100240.19;5068139;28;46277;-83
2022/04/21 09:14:20;;;;;;;;;18.25;17.50;;;;;15.13;41.62;100245.56;5067642;28;45348;-83
2022/04/21 09:16:47;;;;;;;;;16.25;16.00;;;;;15.19;41.46;100237.66;5068354;28;45747;-83
2022/04/21 09:19:13;;;;;;;;;17.25;15.75;;;;;15.27;41.00;100235.03;5068770;28;45441;-83
2022/04/21 09:21:40;;;;;;;;;19.25;19.00;;;;;15.17;41.12;100219.13;5050380;28;45441;-82
2022/04/21 09:24:23;;;;;;;;;19.00;19.00;;;;;14.91;41.58;100160.66;5049712;28;45653;-83
2022/04/21 09:26:49;;;;;;;;;19.25;18.00;;;;;15.40;40.60;100226.31;5068359;28;45668;-84
2022/04/21 09:29:30;;;;;;;;;18.75;15.50;;;;;14.88;40.83;100150.09;5068500;28;45460;-83
2022/04/21 09:31:59;;;;;;;;;20.75;20.00;;;;;15.15;41.16;100180.25;5068388;28;45568;-83
2022/04/21 09:34:25;;;;;;;;;18.50;16.75;;;;;15.36;41.76;100198.91;5068992;28;45897;-83
2022/04/21 09:36:54;;;;;;;;;17.75;16.75;;;;;15.25;41.68;100165.31;5067873;28;45877;-83
2022/04/21 09:39:22;;;;;;;;;21.75;21.25;;;;;15.91;40.96;100269.91;5050018;28;45777;-83
2022/04/21 09:41:52;;;;;;;;;21.00;19.25;;;;;15.45;41.23;100184.84;5050242;28;45670;-84
2022/04/21 09:47:01;;;;;;;;;20.25;19.75;;;;;15.69;41.17;100207.97;5067799;28;46049;-82
2022/04/21 09:49:43;;;;;;;;;18.50;18.50;;;;;16.06;40.84;100259.41;5040634;28;45359;-83
2022/04/21 09:52:08;;;;;;;;;18.75;18.25;;;;;15.59;40.63;100175.22;5051600;28;45599;-83
2022/04/21 09:54:34;;;;;;;;;19.50;19.25;;;;;15.95;41.18;100232.84;5033244;28;45595;-83
2022/04/21 09:57:00;;;;;;;;;20.50;19.75;;;;;16.11;40.80;100243.53;5050716;28;45832;-82
2022/04/21 09:59:26;;;;;;;;;17.75;15.00;;;;;16.06;40.48;100222.31;5051863;28;45978;-83
2022/04/21 10:01:52;;;;;;;;;21.00;19.00;;;;;16.12;40.71;100218.78;5033346;28;45443;-83
2022/04/21 10:04:20;;;;;;;;;19.25;17.75;;;;;16.31;40.25;100236.53;5051626;28;45518;-84
2022/04/21 10:06:47;;;;;;;;;17.25;17.00;;;;;16.40;40.34;100241.88;5051314;28;45745;-84
2022/04/21 10:09:16;;;;;;;;;19.25;19.00;;;;;16.48;40.57;100240.09;5052254;28;45446;-83
2022/04/21 10:11:42;;;;;;;;;18.25;18.00;;;;;16.56;40.18;100234.81;5071695;28;45570;-83
2022/04/21 10:14:12;;;;;;;;;14.00;13.50;;;;;16.60;39.88;100222.41;5071567;28;45347;-83
2022/04/21 10:16:42;;;;;;;;;20.00;19.00;;;;;16.51;39.83;100200.31;5071482;28;46096;-83
2022/04/21 10:19:08;;;;;;;;;20.50;19.50;;;;;16.52;39.63;100191.47;5071144;28;45894;-84
2022/04/21 10:21:38;;;;;;;;;19.00;18.75;;;;;16.82;39.90;100218.06;5053596;28;45395;-83
2022/04/21 10:24:04;;;;;;;;;21.50;19.50;;;;;16.70;39.59;100187.09;5052766;28;45512;-83
2022/04/21 10:26:48;;;;;;;;;16.25;16.25;;;;;16.91;39.36;100196.84;5052738;28;48481;-84
2022/04/21 10:29:22;;;;;;;;;17.25;16.00;;;;;16.83;38.90;100161.44;5071395;28;45820;-83
2022/04/21 10:31:59;;;;;;;;;17.75;16.75;;;;;17.10;39.39;100192.41;5071396;28;45510;-82
2022/04/21 10:34:29;;;;;;;;;16.00;15.50;;;;;17.00;38.62;100157.03;5071295;28;45454;-84
2022/04/21 10:37:18;;;;;;;;;17.75;17.00;;;;;17.12;38.94;100156.13;5071230;28;45719;-83
2022/04/21 10:39:58;;;;;;;;;19.50;17.75;;;;;17.42;38.66;100192.34;5071849;28;45894;-83
2022/04/21 10:42:27;;;;;;;;;20.25;18.00;;;;;16.79;37.77;100078.28;5053079;28;45429;-84
2022/04/21 10:44:54;;;;;;;;;16.50;15.75;;;;;17.17;37.96;100146.38;5070611;28;45541;-83
2022/04/21 10:47:31;;;;;;;;;18.50;18.00;;;;;17.54;37.32;100189.69;5053102;28;48402;-83
2022/04/21 10:49:59;;;;;;;;;17.25;16.75;;;;;17.01;37.32;100103.91;5070168;28;45423;-83
2022/04/21 10:57:53;;;;;;;;;20.25;17.50;;;;;17.50;37.98;100137.44;5070909;28;45468;-84
2022/04/21 11:00:26;;;;;;;;;19.25;18.25;;;;;17.68;37.69;100163.03;5069690;28;45676;-83
2022/04/21 11:03:09;;;;;;;;;16.75;15.50;;;;;17.92;37.22;100178.03;5052619;28;45360;-83
2022/04/21 11:05:39;;;;;;;;;14.50;14.50;;;;;17.99;37.69;100178.03;5070612;28;45607;-83
2022/04/21 11:08:11;;;;;;;;;19.50;18.00;;;;;18.00;37.19;100160.28;5070286;28;46494;-83
2022/04/21 11:10:36;;;;;;;;;16.25;15.50;;;;;17.91;36.51;100139.06;5071150;28;45955;-83
2022/04/21 11:13:01;;;;;;;;;17.00;17.00;;;;;18.07;35.98;100158.47;5052236;28;45487;-84
2022/04/21 11:15:49;;;;;;;;;16.75;16.00;;;;;17.89;36.10;100099.19;5070640;28;45528;-82
2022/04/21 11:18:18;;;;;;;;;14.50;14.50;;;;;18.24;36.83;100140.66;5070204;28;46376;-84
2022/04/21 11:20:50;;;;;;;;;19.75;19.00;;;;;18.30;35.90;100143.28;5052164;28;45457;-83
2022/04/21 11:23:45;;;;;;;;;18.75;17.75;;;;;18.47;35.71;100144.06;5070406;28;45622;-83
2022/04/21 11:26:11;;;;;;;;;18.50;16.75;;;;;18.58;35.80;100137.75;5070100;28;45595;-84
2022/04/21 11:28:42;;;;;;;;;13.25;13.00;;;;;18.55;35.40;100128.00;5070664;28;45782;-83
2022/04/21 11:31:10;;;;;;;;;17.50;15.50;;;;;18.45;35.58;100097.03;5070189;28;45408;-83
2022/04/21 11:33:38;;;;;;;;;16.50;15.25;;;;;18.49;35.42;100101.44;5049040;28;45522;-83
2022/04/21 11:36:08;;;;;;;;;19.00;18.00;;;;;18.27;34.70;100053.75;5048257;28;45309;-83
2022/04/21 11:38:35;;;;;;;;;21.00;19.25;;;;;18.62;34.18;100110.19;5031779;28;48241;-82
2022/04/21 11:41:02;;;;;;;;;17.25;16.25;;;;;18.46;34.77;100080.19;5049564;28;45945;-83
2022/04/21 11:43:28;;;;;;;;;16.00;15.50;;;;;18.65;34.85;100103.09;5032495;28;45740;-83
2022/04/21 11:46:09;;;;;;;;;19.75;18.00;;;;;18.76;34.14;100114.53;5031432;28;45646;-82
2022/04/21 11:48:37;;;;;;;;;17.75;17.00;;;;;18.31;34.83;100033.28;5055576;28;46474;-82
2022/04/21 11:51:04;;;;;;;;;13.00;12.50;;;;;18.78;35.28;100102.13;5069897;28;45788;-83
2022/04/21 11:53:36;;;;;;;;;13.50;13.00;;;;;19.04;33.83;100125.81;5070671;28;45849;-83
2022/04/21 11:56:03;;;;;;;;;15.75;15.50;;;;;18.87;34.16;100084.31;5051214;28;45406;-82
2022/04/21 11:58:34;;;;;;;;;16.50;15.75;;;;;19.00;33.78;100091.25;5052214;28;47020;-83
2022/04/21 12:06:41;;;;;;;;;17.00;16.00;;;;;19.05;33.16;100054.78;5070277;28;45493;-83
2022/04/21 12:09:12;;;;;;;;;13.50;12.75;;;;;19.00;33.76;100025.53;5050711;28;47143;-83